Time;durP1;ratioP1;P1;durP2;ratioP2;P2;SDS_P1;SDS_P2;PMS_P1;PMS_P2;Temp;Humidity;BMP_temperature;BMP_pressure;BME280_temperature;BME280_humidity;BME280_pressure;Samples;Min_cycle;Max_cycle;Signal;HPM_P1;HPM_P2
2022/04/23 00:00:20;;;;;;;8.87;7.97;;;12.50;99.90;;;;;;5054130;28;20201;-51
2022/04/23 00:02:47;;;;;;;9.27;8.30;;;12.50;99.90;;;;;;5055255;28;20218;-52
2022/04/23 00:05:13;;;;;;;11.03;8.80;;;12.40;99.90;;;;;;5059727;28;20203;-50
2022/04/23 00:07:40;;;;;;;11.37;8.90;;;12.40;99.90;;;;;;5057662;28;20730;-52
2022/04/23 00:10:08;;;;;;;10.27;8.70;;;12.30;99.90;;;;;;5058571;28;20282;-52
2022/04/23 00:12:36;;;;;;;9.50;8.27;;;12.30;99.90;;;;;;5056575;28;20261;-51
2022/04/23 00:15:06;;;;;;;11.10;9.37;;;12.30;99.90;;;;;;5059435;28;20196;-53
2022/04/23 00:17:33;;;;;;;9.10;8.07;;;12.30;99.90;;;;;;5059176;28;20287;-53
2022/04/23 00:20:00;;;;;;;10.10;9.00;;;12.30;99.90;;;;;;5053095;28;20250;-52
2022/04/23 00:22:27;;;;;;;11.47;8.67;;;12.30;99.90;;;;;;5059928;28;20231;-52
2022/04/23 00:24:54;;;;;;;11.40;8.83;;;12.30;99.90;;;;;;5060119;28;20223;-51
2022/04/23 00:27:21;;;;;;;12.07;8.93;;;12.40;99.90;;;;;;5066474;28;20230;-50
2022/04/23 00:29:48;;;;;;;10.37;9.30;;;12.30;99.90;;;;;;5064636;28;20677;-52
2022/04/23 00:32:15;;;;;;;9.97;8.47;;;12.30;99.90;;;;;;5064906;28;20269;-52
2022/04/23 00:34:42;;;;;;;11.53;8.60;;;12.10;99.90;;;;;;5055956;28;20287;-52
2022/04/23 00:37:10;;;;;;;11.40;9.57;;;12.10;99.90;;;;;;5066654;28;20208;-53
2022/04/23 00:39:37;;;;;;;10.43;9.27;;;12.10;99.90;;;;;;5068558;28;20199;-50
2022/04/23 00:42:08;;;;;;;11.33;9.17;;;12.20;99.90;;;;;;5067999;28;20268;-50
2022/04/23 00:44:37;;;;;;;13.80;9.70;;;12.10;99.90;;;;;;5063873;28;20211;-50
2022/04/23 00:47:05;;;;;;;10.70;9.30;;;12.10;99.90;;;;;;5064083;28;20241;-51
2022/04/23 00:49:33;;;;;;;13.87;10.23;;;12.10;99.90;;;;;;5061446;28;20288;-51
2022/04/23 00:52:01;;;;;;;10.60;9.50;;;12.10;99.90;;;;;;5062234;28;20534;-53
2022/04/23 00:54:28;;;;;;;12.43;10.20;;;12.10;99.90;;;;;;5068959;28;20733;-51
2022/04/23 00:56:56;;;;;;;11.63;10.33;;;12.00;99.90;;;;;;5060428;28;20577;-51
2022/04/23 00:59:23;;;;;;;12.47;9.90;;;12.10;99.90;;;;;;5066230;28;20241;-50
2022/04/23 01:01:53;;;;;;;11.77;10.57;;;12.10;99.90;;;;;;5063924;28;20687;-51
2022/04/23 01:04:20;;;;;;;12.80;9.97;;;12.10;99.90;;;;;;5063172;28;20266;-52
2022/04/23 01:06:47;;;;;;;12.23;9.97;;;12.10;99.90;;;;;;5063914;28;20673;-52
2022/04/23 01:09:15;;;;;;;12.33;10.97;;;12.00;99.90;;;;;;5055805;28;20190;-50
2022/04/23 01:11:42;;;;;;;11.67;9.50;;;12.00;99.90;;;;;;5062128;28;20203;-54
2022/04/23 01:14:10;;;;;;;12.83;10.40;;;11.90;99.90;;;;;;5065260;28;20578;-51
2022/04/23 01:16:38;;;;;;;13.27;10.93;;;11.90;99.90;;;;;;5066781;28;20565;-51
2022/04/23 01:19:05;;;;;;;12.60;11.00;;;11.90;99.90;;;;;;5059016;28;20196;-50
2022/04/23 01:21:33;;;;;;;11.50;10.17;;;11.80;99.90;;;;;;5069051;28;20232;-51
2022/04/23 01:24:02;;;;;;;12.63;10.93;;;11.80;99.90;;;;;;5066096;28;20586;-51
2022/04/23 01:26:31;;;;;;;13.97;10.67;;;11.80;99.90;;;;;;5064067;28;20195;-50
2022/04/23 01:28:59;;;;;;;12.93;11.13;;;11.90;99.90;;;;;;5066081;28;20249;-51
2022/04/23 01:31:27;;;;;;;14.00;10.93;;;11.80;99.90;;;;;;5055115;28;20894;-51
2022/04/23 01:33:54;;;;;;;13.77;12.27;;;11.80;99.90;;;;;;5061857;28;20331;-49
2022/04/23 01:36:21;;;;;;;13.07;10.83;;;11.70;99.90;;;;;;5063290;28;20230;-50
2022/04/23 01:38:48;;;;;;;14.30;11.77;;;11.70;99.90;;;;;;5054054;28;20596;-51
2022/04/23 01:41:15;;;;;;;15.50;12.87;;;11.70;99.90;;;;;;5069109;28;20689;-50
2022/04/23 01:43:42;;;;;;;13.80;11.70;;;11.70;99.90;;;;;;5053322;28;20515;-49
2022/04/23 01:46:09;;;;;;;15.67;12.60;;;11.70;99.90;;;;;;5065631;28;20196;-52
2022/04/23 01:48:36;;;;;;;14.67;11.93;;;11.70;99.90;;;;;;5060049;28;20696;-51
2022/04/23 01:51:03;;;;;;;16.80;13.20;;;11.60;99.90;;;;;;5064911;28;20207;-50
2022/04/23 01:53:30;;;;;;;18.80;13.17;;;11.60;99.90;;;;;;5063397;28;20265;-51
2022/04/23 01:55:56;;;;;;;16.57;13.30;;;11.60;99.90;;;;;;5062311;28;20584;-51
2022/04/23 01:58:24;;;;;;;15.87;13.47;;;11.60;99.90;;;;;;5066188;28;20262;-50
2022/04/23 02:00:52;;;;;;;15.27;13.50;;;11.50;99.90;;;;;;5059307;28;20209;-50
2022/04/23 02:03:19;;;;;;;16.17;13.37;;;11.50;99.90;;;;;;5054113;28;20220;-53
2022/04/23 02:05:46;;;;;;;17.87;14.73;;;11.50;99.90;;;;;;5059226;28;20196;-51
2022/04/23 02:08:17;;;;;;;18.60;13.70;;;11.50;99.90;;;;;;5058670;28;20228;-50
2022/04/23 02:10:45;;;;;;;16.70;14.23;;;11.50;99.90;;;;;;5052784;28;20195;-50
2022/04/23 02:13:12;;;;;;;15.77;14.03;;;11.50;99.90;;;;;;5056644;28;20241;-49
2022/04/23 02:15:40;;;;;;;17.60;13.80;;;11.40;99.90;;;;;;5061157;28;20612;-49
2022/04/23 02:18:08;;;;;;;17.33;13.50;;;11.50;99.90;;;;;;5055562;28;20542;-50
2022/04/23 02:20:35;;;;;;;16.13;13.93;;;11.50;99.90;;;;;;5064506;28;20728;-54
2022/04/23 02:23:03;;;;;;;20.17;15.80;;;11.40;99.90;;;;;;5055608;28;20803;-51
2022/04/23 02:25:34;;;;;;;19.97;15.20;;;11.40;99.90;;;;;;5061619;28;20299;-49
2022/04/23 02:28:02;;;;;;;17.90;14.97;;;11.40;99.90;;;;;;5059728;28;20220;-49
2022/04/23 02:30:29;;;;;;;18.73;14.80;;;11.40;99.90;;;;;;5060679;28;20870;-49
2022/04/23 02:32:56;;;;;;;18.47;15.00;;;11.40;99.90;;;;;;5062287;28;20267;-52
2022/04/23 02:35:24;;;;;;;17.03;15.20;;;11.40;99.90;;;;;;5057628;28;20236;-53
2022/04/23 02:37:55;;;;;;;17.63;15.13;;;11.40;99.90;;;;;;5065751;28;20238;-52
2022/04/23 02:40:22;;;;;;;17.63;15.00;;;11.40;99.90;;;;;;5061045;28;20900;-52
2022/04/23 02:42:51;;;;;;;18.67;15.23;;;11.40;99.90;;;;;;5056387;28;20294;-54
2022/04/23 02:45:20;;;;;;;17.57;14.83;;;11.30;99.90;;;;;;5026771;28;20212;-53
2022/04/23 02:47:52;;;;;;;17.97;15.23;;;11.30;99.90;;;;;;5054961;28;20863;-52
2022/04/23 02:50:28;;;;;;;18.93;16.10;;;11.40;99.90;;;;;;5061864;28;20559;-52
2022/04/23 02:52:57;;;;;;;19.90;16.43;;;11.30;99.90;;;;;;5055094;28;20241;-52
2022/04/23 02:55:25;;;;;;;17.83;15.63;;;11.40;99.90;;;;;;5061605;28;20292;-52
2022/04/23 02:57:53;;;;;;;20.53;16.37;;;11.40;99.90;;;;;;5061356;28;20615;-52
2022/04/23 03:00:20;;;;;;;19.20;16.63;;;11.30;99.90;;;;;;5062820;28;20286;-52
2022/04/23 03:02:47;;;;;;;21.10;16.50;;;11.30;99.90;;;;;;5059606;28;20264;-52
2022/04/23 03:05:15;;;;;;;21.53;15.87;;;11.30;99.90;;;;;;5059731;28;20212;-51
2022/04/23 03:07:43;;;;;;;20.57;16.83;;;11.30;99.90;;;;;;5058470;28;20202;-53
2022/04/23 03:10:12;;;;;;;19.13;16.77;;;11.20;99.90;;;;;;5065271;28;20562;-52
2022/04/23 03:12:39;;;;;;;18.97;15.90;;;11.20;99.90;;;;;;5063176;28;21034;-52
2022/04/23 03:15:09;;;;;;;19.40;15.70;;;11.10;99.90;;;;;;5059915;28;20654;-53
2022/04/23 03:17:36;;;;;;;20.17;16.60;;;11.20;99.90;;;;;;5067082;28;20610;-52
2022/04/23 03:20:04;;;;;;;21.73;17.40;;;11.30;99.90;;;;;;5058895;28;20231;-51
2022/04/23 03:22:31;;;;;;;19.87;17.07;;;11.20;99.90;;;;;;5064834;28;20614;-51
2022/04/23 03:24:58;;;;;;;20.73;16.53;;;11.20;99.90;;;;;;5062583;28;20634;-50
2022/04/23 03:27:25;;;;;;;20.57;17.13;;;11.20;99.90;;;;;;5052669;28;20288;-51
2022/04/23 03:29:52;;;;;;;20.73;17.80;;;11.20;99.90;;;;;;5032583;28;20568;-52
2022/04/23 03:32:19;;;;;;;20.73;17.23;;;11.10;99.90;;;;;;5042986;28;20608;-52
2022/04/23 03:34:45;;;;;;;20.50;17.43;;;11.20;99.90;;;;;;5044316;28;20906;-51
2022/04/23 03:37:12;;;;;;;22.57;17.83;;;11.30;99.90;;;;;;5036064;28;20306;-52
2022/04/23 03:39:39;;;;;;;21.33;17.50;;;11.20;99.90;;;;;;5050236;28;20582;-51
2022/04/23 03:42:06;;;;;;;21.43;16.97;;;11.20;99.90;;;;;;5053857;28;20555;-50
2022/04/23 03:44:33;;;;;;;20.00;16.33;;;11.20;99.90;;;;;;5046363;28;20214;-51
2022/04/23 03:47:03;;;;;;;20.43;16.83;;;11.20;99.90;;;;;;5050218;28;20265;-53
2022/04/23 03:49:30;;;;;;;23.43;18.57;;;11.30;99.90;;;;;;5049256;28;20387;-51
2022/04/23 03:51:57;;;;;;;20.63;18.17;;;11.30;99.90;;;;;;5050509;28;20237;-52
2022/04/23 03:54:24;;;;;;;22.47;18.17;;;11.30;99.90;;;;;;5047149;28;20258;-51
2022/04/23 03:56:51;;;;;;;22.83;18.17;;;11.30;99.90;;;;;;5051749;28;20800;-51
2022/04/23 03:59:24;;;;;;;22.27;16.97;;;11.20;99.90;;;;;;5050743;28;20272;-50
2022/04/23 04:01:55;;;;;;;23.00;17.67;;;11.20;99.90;;;;;;5050451;28;20738;-50
2022/04/23 04:04:22;;;;;;;21.50;17.60;;;11.20;99.90;;;;;;5047626;28;20216;-51
2022/04/23 04:06:49;;;;;;;20.23;16.87;;;11.10;99.90;;;;;;5047659;28;20280;-50
2022/04/23 04:09:16;;;;;;;21.67;17.73;;;11.20;99.90;;;;;;5043016;28;20516;-52
2022/04/23 04:12:01;;;;;;;22.33;17.53;;;11.20;99.90;;;;;;5043460;28;20313;-51
2022/04/23 04:14:32;;;;;;;23.30;17.63;;;11.20;99.90;;;;;;5046835;28;20276;-52
2022/04/23 04:17:00;;;;;;;20.13;17.63;;;11.20;99.90;;;;;;5051272;28;20198;-51
2022/04/23 04:19:27;;;;;;;20.70;16.80;;;11.20;99.90;;;;;;5054558;28;20197;-53
2022/04/23 04:21:54;;;;;;;22.43;17.67;;;11.20;99.90;;;;;;5050487;28;20220;-52
2022/04/23 04:24:23;;;;;;;20.93;17.83;;;11.20;99.90;;;;;;5047487;28;20217;-54
2022/04/23 04:26:52;;;;;;;20.87;17.60;;;11.10;99.90;;;;;;5057151;28;20236;-53
2022/04/23 04:29:19;;;;;;;22.23;18.17;;;11.10;99.90;;;;;;5050123;28;20195;-52
2022/04/23 04:31:49;;;;;;;21.20;17.87;;;11.20;99.90;;;;;;5062858;28;20660;-54
2022/04/23 04:34:17;;;;;;;25.13;18.47;;;11.10;99.90;;;;;;5064951;28;20537;-51
2022/04/23 04:36:45;;;;;;;21.97;17.70;;;11.20;99.90;;;;;;5062748;28;20196;-52
2022/04/23 04:39:13;;;;;;;23.80;17.63;;;11.10;99.90;;;;;;5066409;28;20206;-52
2022/04/23 04:41:40;;;;;;;20.63;17.93;;;11.20;99.90;;;;;;5038090;28;20219;-52
2022/04/23 04:44:08;;;;;;;24.30;18.00;;;11.20;99.90;;;;;;5058787;28;20553;-52
2022/04/23 04:46:36;;;;;;;19.83;17.43;;;11.20;99.90;;;;;;5049550;28;20201;-51
2022/04/23 04:49:04;;;;;;;24.07;17.67;;;11.10;99.90;;;;;;5065014;28;20203;-52
2022/04/23 04:51:31;;;;;;;21.97;17.47;;;11.20;99.90;;;;;;5065933;28;20316;-54
2022/04/23 04:53:58;;;;;;;21.47;17.97;;;11.10;99.90;;;;;;5061694;28;20229;-55
2022/04/23 04:56:25;;;;;;;20.83;18.20;;;11.10;99.90;;;;;;5065736;28;20263;-51
2022/04/23 04:58:51;;;;;;;23.07;17.93;;;11.20;99.90;;;;;;5061789;28;20268;-50
2022/04/23 05:01:18;;;;;;;20.77;17.10;;;11.10;99.90;;;;;;5065382;28;20234;-51
2022/04/23 05:03:45;;;;;;;21.73;17.43;;;11.20;99.90;;;;;;5060468;28;20715;-52
2022/04/23 05:06:12;;;;;;;19.30;16.73;;;11.20;99.90;;;;;;5065525;28;20259;-58
2022/04/23 05:08:39;;;;;;;22.70;18.23;;;11.20;99.90;;;;;;5064187;28;20196;-50
2022/04/23 05:11:06;;;;;;;20.47;17.83;;;11.20;99.90;;;;;;5061400;28;20309;-52
2022/04/23 05:13:33;;;;;;;20.13;17.73;;;11.20;99.90;;;;;;5041244;28;20595;-56
2022/04/23 05:16:00;;;;;;;21.73;17.50;;;11.20;99.90;;;;;;5064019;28;20202;-50
2022/04/23 05:18:27;;;;;;;22.10;18.50;;;11.20;99.90;;;;;;5056399;28;20514;-53
2022/04/23 05:20:54;;;;;;;21.20;17.73;;;11.20;99.90;;;;;;5066646;28;20201;-51
2022/04/23 05:23:21;;;;;;;22.63;18.47;;;11.20;99.90;;;;;;5065637;28;20255;-54
2022/04/23 05:25:47;;;;;;;22.03;18.07;;;11.20;99.90;;;;;;5061304;28;20315;-51
2022/04/23 05:28:14;;;;;;;21.43;18.27;;;11.30;99.90;;;;;;5066762;28;20278;-52
2022/04/23 05:30:42;;;;;;;25.30;19.13;;;11.30;99.90;;;;;;5059250;28;20225;-51
2022/04/23 05:33:09;;;;;;;21.23;18.70;;;11.20;99.90;;;;;;5064248;28;20191;-50
2022/04/23 05:35:36;;;;;;;21.07;17.67;;;11.20;99.90;;;;;;5055850;28;20268;-51
2022/04/23 05:38:03;;;;;;;23.13;18.33;;;11.30;99.90;;;;;;5056902;28;20256;-50
2022/04/23 05:40:30;;;;;;;22.17;18.07;;;11.30;99.90;;;;;;5056756;28;20285;-52
2022/04/23 05:43:00;;;;;;;21.53;17.10;;;11.40;99.90;;;;;;5062006;28;20677;-53
2022/04/23 05:45:28;;;;;;;21.70;18.33;;;11.40;99.90;;;;;;5067221;28;20221;-51
2022/04/23 05:47:56;;;;;;;23.07;18.50;;;11.40;99.90;;;;;;5047332;28;20749;-52
2022/04/23 05:50:23;;;;;;;21.53;17.77;;;11.40;99.90;;;;;;5064863;28;20210;-52
2022/04/23 05:52:52;;;;;;;23.70;17.63;;;11.40;99.90;;;;;;5065596;28;20194;-51
2022/04/23 05:55:19;;;;;;;20.87;17.30;;;11.50;99.90;;;;;;5066609;28;20241;-52
2022/04/23 05:57:47;;;;;;;22.07;17.97;;;11.50;99.90;;;;;;5059574;28;20288;-51
2022/04/23 06:00:14;;;;;;;23.63;18.27;;;11.50;99.90;;;;;;5059934;28;20815;-51
2022/04/23 06:02:41;;;;;;;20.93;18.53;;;11.60;99.90;;;;;;5066852;28;20192;-51
2022/04/23 06:05:09;;;;;;;22.67;18.37;;;11.50;99.90;;;;;;5066047;28;20635;-52
2022/04/23 06:07:36;;;;;;;20.37;18.17;;;11.60;99.90;;;;;;5065812;28;20205;-52
2022/04/23 06:10:04;;;;;;;22.23;18.83;;;11.70;99.90;;;;;;5062675;28;20204;-53
2022/04/23 06:12:31;;;;;;;21.20;17.83;;;11.70;99.90;;;;;;5061760;28;20265;-52
2022/04/23 06:15:00;;;;;;;22.37;18.23;;;11.80;99.90;;;;;;5057273;28;20559;-50
2022/04/23 06:17:28;;;;;;;20.63;17.80;;;11.80;99.90;;;;;;5051606;28;20209;-50
2022/04/23 06:19:55;;;;;;;20.57;18.20;;;11.90;99.90;;;;;;5056994;28;20205;-51
2022/04/23 06:22:23;;;;;;;20.50;17.63;;;12.10;99.90;;;;;;5057435;28;20235;-51
2022/04/23 06:24:51;;;;;;;19.73;17.13;;;12.00;99.90;;;;;;5060582;28;20215;-52
2022/04/23 06:27:18;;;;;;;21.27;18.20;;;12.00;99.90;;;;;;5068409;28;20279;-52
2022/04/23 06:29:45;;;;;;;21.87;17.63;;;12.00;99.90;;;;;;5056853;28;20256;-50
2022/04/23 06:32:12;;;;;;;21.33;18.33;;;12.10;99.90;;;;;;5064281;28;20232;-51
2022/04/23 06:34:39;;;;;;;22.37;17.57;;;12.10;99.90;;;;;;5062144;28;20203;-51
2022/04/23 06:37:08;;;;;;;19.70;17.27;;;12.20;99.90;;;;;;5063649;28;20209;-51
2022/04/23 06:39:35;;;;;;;20.00;17.63;;;12.30;99.90;;;;;;5055819;28;20649;-52
2022/04/23 06:42:03;;;;;;;20.10;17.77;;;12.40;99.90;;;;;;5038099;28;20213;-52
2022/04/23 06:44:29;;;;;;;23.40;18.77;;;12.50;99.90;;;;;;5054943;28;20241;-53
2022/04/23 06:46:56;;;;;;;21.63;17.77;;;12.60;99.90;;;;;;5058185;28;20202;-51
2022/04/23 06:49:25;;;;;;;19.70;17.57;;;12.70;99.90;;;;;;5049598;28;20207;-52
2022/04/23 06:51:52;;;;;;;21.00;18.03;;;12.70;99.90;;;;;;5051014;28;20199;-51
2022/04/23 06:54:19;;;;;;;19.60;17.50;;;12.90;99.90;;;;;;5056876;28;21619;-53
2022/04/23 06:56:46;;;;;;;21.90;17.37;;;13.10;99.90;;;;;;5051828;28;20265;-51
2022/04/23 06:59:12;;;;;;;21.97;17.60;;;13.10;99.90;;;;;;5039306;28;20200;-51
2022/04/23 07:01:42;;;;;;;19.23;17.13;;;13.20;99.90;;;;;;5061613;28;20244;-52
2022/04/23 07:04:10;;;;;;;18.97;16.73;;;13.30;99.90;;;;;;5056239;28;20225;-52
2022/04/23 07:06:37;;;;;;;20.77;16.57;;;13.60;99.90;;;;;;5057891;28;20207;-51
2022/04/23 07:09:05;;;;;;;18.47;16.47;;;13.70;99.90;;;;;;5063575;28;20245;-52
2022/04/23 07:11:32;;;;;;;18.27;16.20;;;13.90;99.90;;;;;;5062158;28;20191;-52
2022/04/23 07:13:59;;;;;;;21.57;17.83;;;14.00;99.90;;;;;;5066879;28;20251;-53
2022/04/23 07:16:26;;;;;;;20.20;16.70;;;13.90;99.90;;;;;;5066943;28;20295;-52
2022/04/23 07:18:53;;;;;;;18.60;16.50;;;14.10;99.90;;;;;;5061760;28;20861;-52
2022/04/23 07:21:21;;;;;;;18.13;16.07;;;14.30;99.90;;;;;;5069044;28;20298;-53
2022/04/23 07:24:04;;;;;;;17.43;15.63;;;14.30;99.90;;;;;;5044825;28;20205;-51
2022/04/23 07:26:32;;;;;;;19.13;16.00;;;14.40;99.90;;;;;;5064025;28;20220;-56
2022/04/23 07:28:59;;;;;;;18.67;16.30;;;14.40;99.90;;;;;;5066807;28;20279;-52
2022/04/23 07:31:25;;;;;;;18.13;16.23;;;14.60;99.90;;;;;;5054951;28;20642;-51
2022/04/23 07:39:23;;;;;;;17.53;15.73;;;14.70;99.90;;;;;;5048531;28;20296;-50
2022/04/23 07:41:50;;;;;;;17.27;15.33;;;14.70;99.90;;;;;;5058624;28;20723;-51
2022/04/23 07:44:17;;;;;;;19.37;16.50;;;14.90;99.90;;;;;;5058848;28;20199;-52
2022/04/23 07:46:44;;;;;;;17.30;15.37;;;15.00;99.90;;;;;;5058750;28;20298;-52
2022/04/23 07:49:10;;;;;;;19.60;16.20;;;15.10;99.90;;;;;;5054206;28;20303;-51
2022/04/23 07:51:38;;;;;;;16.93;14.83;;;15.00;99.90;;;;;;5052743;28;20251;-52
2022/04/23 07:54:04;;;;;;;20.57;16.20;;;14.90;99.90;;;;;;5058150;28;20745;-51
2022/04/23 07:56:31;;;;;;;17.93;16.03;;;14.90;99.90;;;;;;5059027;28;20239;-55
2022/04/23 07:58:58;;;;;;;17.53;15.70;;;14.90;99.90;;;;;;5059119;28;20290;-52
2022/04/23 08:01:25;;;;;;;20.40;15.93;;;15.30;99.90;;;;;;5059058;28;20219;-52
2022/04/23 08:03:52;;;;;;;18.00;15.67;;;15.30;99.90;;;;;;5053604;28;20193;-52
2022/04/23 08:06:19;;;;;;;17.53;15.17;;;15.30;99.90;;;;;;5063018;28;20642;-51
2022/04/23 08:08:45;;;;;;;17.40;15.50;;;15.20;99.90;;;;;;5063383;28;20224;-53
2022/04/23 08:11:12;;;;;;;16.50;14.87;;;15.20;99.90;;;;;;5061216;28;20631;-51
2022/04/23 08:13:39;;;;;;;18.13;15.57;;;15.40;99.90;;;;;;5061890;28;20734;-51
2022/04/23 08:16:06;;;;;;;21.53;15.87;;;15.70;99.90;;;;;;5058484;28;20224;-51
2022/04/23 08:18:33;;;;;;;17.20;15.40;;;15.50;99.90;;;;;;5058720;28;20661;-51
2022/04/23 08:20:59;;;;;;;16.43;14.43;;;15.60;99.90;;;;;;5054472;28;20243;-51
2022/04/23 08:23:26;;;;;;;16.60;14.90;;;15.80;99.90;;;;;;5058937;28;20241;-51
2022/04/23 08:25:56;;;;;;;17.07;15.27;;;15.90;99.90;;;;;;5063099;28;20217;-50
2022/04/23 08:31:08;;;;;;;17.20;15.07;;;16.10;99.90;;;;;;5058911;28;20230;-51
2022/04/23 08:36:22;;;;;;;17.70;14.87;;;16.40;99.90;;;;;;5050191;28;20204;-51
2022/04/23 08:38:49;;;;;;;17.20;15.37;;;16.80;99.90;;;;;;5060711;28;20229;-52
2022/04/23 08:41:16;;;;;;;15.77;14.17;;;16.60;99.90;;;;;;5067830;28;20229;-53
2022/04/23 08:43:42;;;;;;;16.87;15.10;;;16.70;99.90;;;;;;5060873;28;20201;-52
2022/04/23 08:46:09;;;;;;;16.80;15.00;;;16.90;99.90;;;;;;5061748;28;20287;-52
2022/04/23 08:48:48;;;;;;;17.73;16.00;;;17.40;99.90;;;;;;5061615;28;20199;-52
2022/04/23 08:51:20;;;;;;;18.93;15.93;;;17.20;99.90;;;;;;5053842;28;20244;-50
2022/04/23 08:53:48;;;;;;;18.67;16.77;;;16.80;99.90;;;;;;5063557;28;20567;-50
2022/04/23 08:56:15;;;;;;;18.93;16.40;;;16.60;99.90;;;;;;5063244;28;20235;-49
2022/04/23 08:58:42;;;;;;;17.13;15.33;;;16.80;99.90;;;;;;5063012;28;20220;-49
2022/04/23 09:01:09;;;;;;;17.70;15.80;;;17.20;99.90;;;;;;5064319;28;20257;-49
2022/04/23 09:03:35;;;;;;;17.50;15.70;;;17.20;99.90;;;;;;5053891;28;20296;-49
2022/04/23 09:06:02;;;;;;;16.00;14.30;;;17.50;99.90;;;;;;5035781;28;20219;-51
2022/04/23 09:08:29;;;;;;;17.40;15.53;;;17.10;99.90;;;;;;5041645;28;20246;-52
2022/04/23 09:10:56;;;;;;;18.60;16.33;;;17.00;99.90;;;;;;5059365;28;20195;-53
2022/04/23 09:13:28;;;;;;;18.80;16.20;;;17.10;99.90;;;;;;5059316;28;20214;-53
2022/04/23 09:24:48;;;;;;;17.13;15.43;;;17.20;99.90;;;;;;5045138;28;20282;-51
2022/04/23 09:27:16;;;;;;;17.77;15.83;;;17.60;99.90;;;;;;5053412;28;20194;-52
2022/04/23 09:30:04;;;;;;;20.67;17.67;;;17.50;99.90;;;;;;5059992;28;20294;-51
2022/04/23 09:32:32;;;;;;;19.77;16.07;;;17.30;99.90;;;;;;5055448;28;20199;-52
2022/04/23 09:35:06;;;;;;;18.97;16.97;;;17.20;99.90;;;;;;5052864;28;20281;-53
2022/04/23 09:40:35;;;;;;;19.93;17.83;;;16.90;99.90;;;;;;4968166;28;20253;-51
2022/04/23 09:43:09;;;;;;;19.33;17.33;;;16.90;99.90;;;;;;4971562;28;20305;-51
2022/04/23 09:45:42;;;;;;;20.93;18.33;;;16.70;99.90;;;;;;4975542;28;20244;-52
2022/04/23 09:48:14;;;;;;;22.07;17.83;;;16.80;99.90;;;;;;4975811;28;20198;-52
2022/04/23 09:50:45;;;;;;;19.83;17.77;;;16.60;99.90;;;;;;4972751;28;20751;-53
2022/04/23 09:53:17;;;;;;;20.53;18.20;;;16.50;99.90;;;;;;4960541;28;20241;-52
2022/04/23 09:55:45;;;;;;;20.50;18.40;;;16.50;99.90;;;;;;4977020;28;20338;-51
2022/04/23 09:58:13;;;;;;;19.80;17.77;;;16.50;99.90;;;;;;4963596;28;20216;-52
2022/04/23 10:00:41;;;;;;;20.67;18.27;;;17.10;99.90;;;;;;4981132;28;20288;-51
2022/04/23 10:03:09;;;;;;;19.83;17.87;;;17.20;99.90;;;;;;4979675;28;20229;-50
2022/04/23 10:05:38;;;;;;;20.40;18.20;;;17.00;99.90;;;;;;4983493;28;20224;-51
2022/04/23 10:08:35;;;;;;;21.27;19.03;;;17.00;99.90;;;;;;4975933;28;20242;-51
2022/04/23 10:11:04;;;;;;;20.73;18.53;;;16.80;99.90;;;;;;4980223;28;20344;-52
2022/04/23 10:13:33;;;;;;;21.67;19.43;;;16.70;99.90;;;;;;4985792;28;20673;-52
2022/04/23 10:16:03;;;;;;;21.77;18.33;;;16.80;99.90;;;;;;5054977;28;20480;-51
2022/04/23 10:18:32;;;;;;;20.67;18.57;;;16.90;99.90;;;;;;5060099;28;20604;-52
2022/04/23 10:21:04;;;;;;;21.57;18.97;;;16.90;99.90;;;;;;5057821;28;20231;-51
2022/04/23 10:24:05;;;;;;;21.93;19.03;;;16.90;99.90;;;;;;5063688;28;20702;-52
2022/04/23 10:26:52;;;;;;;23.33;19.00;;;16.90;99.90;;;;;;5050105;28;20299;-53
2022/04/23 10:29:20;;;;;;;21.97;18.90;;;17.30;99.90;;;;;;5045975;28;20697;-52
2022/04/23 10:32:09;;;;;;;21.77;19.40;;;17.30;99.90;;;;;;5055644;28;20667;-53
2022/04/23 10:34:36;;;;;;;20.67;18.50;;;17.60;99.90;;;;;;5056859;28;20291;-52
2022/04/23 10:37:19;;;;;;;21.13;18.57;;;17.80;99.90;;;;;;5050469;28;20286;-52
2022/04/23 10:39:51;;;;;;;22.30;19.63;;;17.60;99.90;;;;;;5063016;28;20674;-51
2022/04/23 10:42:22;;;;;;;21.73;18.53;;;17.60;99.90;;;;;;5058338;28;20230;-52
2022/04/23 10:44:51;;;;;;;21.70;18.57;;;17.40;99.90;;;;;;5055600;28;20310;-51
2022/04/23 10:47:29;;;;;;;20.77;18.63;;;17.70;99.90;;;;;;5047060;28;20677;-51
2022/04/23 10:50:22;;;;;;;22.50;19.17;;;17.60;99.90;;;;;;5060950;28;20549;-52
2022/04/23 10:52:50;;;;;;;22.00;18.60;;;17.60;99.90;;;;;;5054924;28;20566;-51
2022/04/23 10:55:18;;;;;;;19.67;17.57;;;17.80;99.90;;;;;;5052055;28;20206;-52
2022/04/23 10:57:52;;;;;;;21.83;18.57;;;17.90;99.90;;;;;;5064215;28;20268;-50
2022/04/23 11:00:24;;;;;;;21.47;19.30;;;18.00;99.90;;;;;;5042066;28;20203;-52
2022/04/23 11:02:53;;;;;;;20.33;17.93;;;18.20;99.90;;;;;;5042109;28;20199;-52
2022/04/23 11:13:58;;;;;;;23.73;19.93;;;18.20;99.90;;;;;;5065309;28;20282;-52
2022/04/23 11:16:28;;;;;;;22.40;19.70;;;18.10;99.90;;;;;;5066791;28;20268;-51
2022/04/23 11:18:58;;;;;;;21.87;19.53;;;18.00;99.90;;;;;;5053604;28;20212;-52
2022/04/23 11:21:32;;;;;;;26.47;21.97;;;18.10;99.90;;;;;;5061816;28;20323;-52
2022/04/23 11:24:01;;;;;;;21.50;19.00;;;18.00;99.90;;;;;;5061240;28;20202;-53
2022/04/23 11:26:45;;;;;;;21.97;19.50;;;18.20;99.90;;;;;;5059111;28;20316;-52
2022/04/23 11:29:13;;;;;;;22.17;19.73;;;18.50;99.90;;;;;;5062931;28;20191;-50
2022/04/23 11:31:49;;;;;;;20.60;18.50;;;18.50;99.90;;;;;;5053625;28;20282;-52
2022/04/23 11:34:17;;;;;;;21.73;18.90;;;18.40;99.90;;;;;;5052405;28;20296;-52
2022/04/23 11:36:44;;;;;;;22.20;19.90;;;18.80;99.90;;;;;;5064862;28;20652;-52
2022/04/23 11:39:13;;;;;;;21.93;19.40;;;18.70;99.90;;;;;;5061336;28;20250;-52
2022/04/23 11:41:43;;;;;;;23.47;20.63;;;18.70;99.90;;;;;;5064677;28;20621;-53
2022/04/23 11:44:15;;;;;;;24.37;18.93;;;18.50;99.90;;;;;;5043369;28;20245;-52
2022/04/23 11:46:48;;;;;;;21.70;18.83;;;18.80;99.90;;;;;;5066808;28;20218;-53
2022/04/23 11:49:31;;;;;;;20.67;18.27;;;19.30;99.90;;;;;;5063933;28;20268;-53
2022/04/23 11:52:10;;;;;;;22.83;19.33;;;19.60;99.90;;;;;;5063901;28;20295;-52
2022/04/23 11:54:45;;;;;;;20.23;18.13;;;19.60;99.90;;;;;;5038009;28;20191;-53
2022/04/23 11:57:16;;;;;;;20.93;18.67;;;19.70;99.90;;;;;;5069039;28;20651;-52
2022/04/23 11:59:46;;;;;;;22.17;19.80;;;20.00;99.90;;;;;;5060650;28;20803;-52
2022/04/23 12:02:24;;;;;;;25.30;18.70;;;20.00;99.90;;;;;;5062659;28;20211;-52
2022/04/23 12:04:53;;;;;;;21.00;18.83;;;19.80;99.90;;;;;;5069096;28;20198;-52
2022/04/23 12:07:21;;;;;;;21.67;18.70;;;19.90;99.90;;;;;;5067046;28;20253;-52
2022/04/23 12:09:51;;;;;;;22.57;19.17;;;20.60;99.90;;;;;;5050828;28;20257;-53
2022/04/23 12:12:26;;;;;;;19.10;17.10;;;20.50;99.90;;;;;;5052452;28;20196;-52
2022/04/23 12:15:06;;;;;;;21.03;18.60;;;20.40;99.90;;;;;;5052496;28;20218;-53
2022/04/23 12:17:50;;;;;;;22.13;18.37;;;20.70;99.90;;;;;;5080592;28;20595;-53
2022/04/23 12:20:25;;;;;;;22.13;19.63;;;20.70;99.90;;;;;;5063502;28;20721;-52
2022/04/23 12:23:03;;;;;;;21.73;19.00;;;20.60;99.90;;;;;;5065434;28;20250;-53
2022/04/23 12:25:32;;;;;;;22.87;19.60;;;20.40;99.90;;;;;;5057809;28;20199;-53
2022/04/23 12:40:44;;;;;;;29.97;19.33;;;20.30;99.90;;;;;;5042049;28;20206;-52
2022/04/23 12:42:30;;;;;;;21.90;18.77;;;20.20;99.90;;;;;;5065836;28;20667;-54
2022/04/23 12:44:57;;;;;;;20.73;18.67;;;20.40;99.90;;;;;;5062359;28;20608;-54
2022/04/23 12:47:34;;;;;;;21.33;19.13;;;20.70;99.90;;;;;;5064859;28;20750;-54
2022/04/23 12:50:05;;;;;;;20.83;18.33;;;21.10;99.90;;;;;;5056613;28;20602;-52
2022/04/23 12:52:45;;;;;;;21.20;18.90;;;21.20;99.90;;;;;;5058012;28;20202;-52
2022/04/23 12:55:16;;;;;;;20.27;18.20;;;21.00;99.90;;;;;;5046321;28;20284;-52
2022/04/23 12:57:48;;;;;;;20.73;18.37;;;20.50;99.90;;;;;;5064742;28;20247;-52
2022/04/23 13:00:25;;;;;;;20.20;18.10;;;20.60;99.90;;;;;;5060985;28;20234;-52
2022/04/23 13:02:56;;;;;;;21.83;19.60;;;20.90;99.90;;;;;;5057206;28;20218;-54
2022/04/23 13:05:24;;;;;;;19.60;17.50;;;20.90;99.90;;;;;;5065312;28;20293;-53
2022/04/23 13:10:37;;;;;;;19.50;17.40;;;21.70;99.90;;;;;;5055491;28;20214;-51
2022/04/23 13:13:09;;;;;;;21.07;17.67;;;21.20;99.90;;;;;;5063443;28;20196;-52
2022/04/23 13:15:37;;;;;;;21.43;17.43;;;21.20;99.90;;;;;;5056306;28;20203;-54
2022/04/23 13:18:05;;;;;;;19.17;16.83;;;21.30;99.90;;;;;;5057334;28;20226;-52
2022/04/23 13:20:32;;;;;;;21.30;17.50;;;21.10;99.90;;;;;;5064872;28;20241;-52
2022/04/23 13:22:59;;;;;;;18.33;16.43;;;20.80;99.90;;;;;;5065507;28;20283;-52